Latest Weather Observations for Minlaton Airport

IDS60801

Issued at 6:11 pm CST Wednesday 23 May 2018 (issued every 10 minutes, with the page automatically refreshed every 10 minutes)

About weather observations | Map of weather stations | Latest weather observations for SA | Other Formats
Station Details ID: 022031 Name: MINLATON AERO Lat: -34.75 Lon: 137.53 Height: 32.0 m
Data from the previous 72 hours. | See also: Recent months at Minlaton Airport
Date/Time
CST
Temp
°C
App
Temp
°C
Dew
Point
°C
Rel
Hum
%
Delta-T
°C
Wind Press
QNH
hPa
Press
MSL
hPa
Rain since
9am
mm
Dir  Spd
km/h
Gust
km/h
Spd
kts
Gust
kts
23/06:00pm 14.5 10.3 9.7 73 2.5 SSE 22 26 12 14 1029.2 1029.1 0.0
23/05:30pm 15.2 12.1 8.9 66 3.2 S 15 20 8 11 1029.1 1029.0 0.0
23/05:00pm 15.8 12.1 7.8 59 4.0 S 17 20 9 11 1029.0 1028.9 0.0
23/04:30pm 16.1 12.6 7.3 56 4.3 SSE 15 20 8 11 1029.0 1028.9 0.0
23/04:00pm 16.4 12.0 6.5 52 4.9 SE 19 24 10 13 1028.9 1028.8 0.0
23/03:30pm 17.0 13.0 6.5 50 5.1 SSE 17 20 9 11 1028.8 1028.7 0.0
23/03:00pm 17.2 12.6 6.4 49 5.3 SE 20 26 11 14 1028.9 1028.8 0.0
23/02:30pm 17.2 13.8 5.8 47 5.5 SSE 13 20 7 11 1029.0 1028.9 0.0
23/02:00pm 17.2 13.8 5.8 47 5.5 S 13 20 7 11 1029.2 1029.1 0.0
23/01:30pm 17.2 13.5 6.4 49 5.3 S 15 24 8 13 1029.4 1029.3 0.0
23/01:00pm 17.1 12.7 6.6 50 5.2 SSE 19 24 10 13 1029.7 1029.6 0.0
23/12:30pm 17.1 12.8 7.2 52 4.9 SSE 19 26 10 14 1030.0 1029.9 0.0
23/12:00pm 16.9 13.1 7.5 54 4.7 SSE 17 24 9 13 1030.5 1030.4 0.0
23/11:30am 16.5 12.7 7.7 56 4.4 SE 17 20 9 11 1031.0 1030.9 0.0
23/11:00am 16.1 13.4 8.8 62 3.7 SE 13 17 7 9 1031.3 1031.2 0.0
23/10:30am 16.1 13.5 7.6 57 4.2 S 11 15 6 8 1031.4 1031.3 0.0
23/10:00am 15.9 14.4 9.3 65 3.4 SSW 7 9 4 5 1031.5 1031.4 0.0
23/09:30am 15.3 14.0 9.2 67 3.1 SSW 6 7 3 4 1031.4 1031.3 0.0
23/09:00am 14.8 14.6 9.0 68 2.9 CALM 0 0 0 0 1031.4 1031.3 0.0
23/08:30am 14.1 12.8 9.1 72 2.5 SSE 6 7 3 4 1031.3 1031.2 0.0
23/08:00am 13.4 11.9 8.5 72 2.5 S 6 7 3 4 1031.2 1031.1 0.0
23/07:30am 12.9 11.3 8.6 75 2.1 SE 7 13 4 7 1031.0 1030.9 0.0
23/07:00am 13.3 12.7 7.5 68 2.8 CALM 0 0 0 0 1030.8 1030.7 0.0
23/06:30am 13.3 11.6 7.7 69 2.7 SSE 6 7 3 4 1030.6 1030.5 0.0
23/06:00am 13.3 12.5 8.0 70 2.6 SSW 2 9 1 5 1030.4 1030.3 0.0
23/05:30am 13.5 12.9 7.5 67 2.9 CALM 0 0 0 0 1030.2 1030.1 0.0
23/05:00am 13.5 11.8 7.5 67 2.9 SSE 6 9 3 5 1029.9 1029.8 0.0
23/04:30am 14.1 11.4 7.4 64 3.3 S 11 15 6 8 1029.7 1029.6 0.0
23/04:00am 13.4 11.1 7.6 68 2.8 SSW 9 13 5 7 1029.7 1029.6 0.0
23/03:30am 12.5 10.0 8.0 74 2.2 S 11 15 6 8 1029.7 1029.6 0.0
23/03:00am 12.2 10.0 7.9 75 2.1 SSE 9 13 5 7 1029.7 1029.6 0.0
23/02:30am 12.2 10.2 8.5 78 1.8 SSE 9 11 5 6 1029.7 1029.6 0.0
23/02:00am 12.3 10.1 8.0 75 2.1 SSE 9 11 5 6 1029.8 1029.7 0.0
23/01:30am 13.0 11.2 7.9 71 2.5 SSE 7 9 4 5 1029.9 1029.8 0.0
23/01:00am 12.9 11.2 7.6 70 2.6 S 6 9 3 5 1030.0 1029.9 0.0
23/12:30am 13.3 11.4 7.5 68 2.8 SSW 7 11 4 6 1030.1 1030.0 0.0
23/12:00am 13.4 11.7 7.4 67 2.9 SSW 6 7 3 4 1030.1 1030.0 0.0
 
Date/Time
CST
Temp
°C
App
Temp
°C
Dew
Point
°C
Rel
Hum
%
Delta-T
°C
Wind Press
QNH
hPa
Press
MSL
hPa
Rain since
9am
mm
Dir  Spd
km/h
Gust
km/h
Spd
kts
Gust
kts
22/11:30pm 13.4 11.1 7.6 68 2.8 SSE 9 11 5 6 1030.4 1030.3 0.0
22/11:00pm 13.5 11.0 8.1 70 2.7 SSE 11 11 6 6 1030.7 1030.6 0.0
22/10:30pm 13.5 11.4 8.1 70 2.7 SSE 9 11 5 6 1030.7 1030.6 0.0
22/10:00pm 13.6 10.8 8.4 71 2.6 SSE 13 15 7 8 1031.0 1030.9 0.0
22/09:30pm 13.6 11.8 9.3 75 2.2 S 9 13 5 7 1031.0 1030.9 0.0
22/09:00pm 13.9 11.4 9.7 76 2.1 S 13 15 7 8 1031.0 1030.9 0.0
22/08:30pm 13.9 12.9 11.1 83 1.5 S 7 7 4 4 1031.0 1030.9 0.0
22/08:00pm 13.4 13.4 11.1 86 1.2 SSW 2 9 1 5 1030.9 1030.8 0.0
22/07:30pm 13.5 13.9 11.2 86 1.2 CALM 0 0 0 0 1030.9 1030.8 0.0
22/07:00pm 13.6 14.0 11.3 86 1.2 CALM 0 0 0 0 1030.7 1030.6 0.0
22/06:30pm 13.7 14.1 11.2 85 1.3 CALM 0 0 0 0 1030.6 1030.5 0.0
22/06:00pm 13.5 12.7 11.2 86 1.2 S 6 6 3 3 1030.4 1030.3 0.0
22/05:30pm 13.7 12.9 11.6 87 1.1 SSW 7 9 4 5 1030.5 1030.4 0.0
22/05:00pm 14.5 11.3 11.1 80 1.8 SSW 19 30 10 16 1030.6 1030.5 0.0
22/04:30pm 15.7 12.9 10.0 69 3.0 SSW 15 17 8 9 1030.4 1030.3 0.0
22/04:00pm 15.8 11.6 9.9 68 3.1 SSW 22 28 12 15 1030.1 1030.0 0.0
22/03:30pm 16.4 13.6 10.0 66 3.3 WSW 15 20 8 11 1029.9 1029.8 0.0
22/03:00pm 16.3 12.4 9.3 63 3.6 WSW 20 24 11 13 1029.9 1029.8 0.0
22/02:30pm 16.7 12.0 9.1 61 3.9 SW 24 28 13 15 1029.8 1029.7 0.0
22/02:00pm 17.1 11.9 9.0 59 4.2 SW 26 32 14 17 1030.0 1029.9 0.0
22/01:30pm 16.9 13.0 9.3 61 3.9 WSW 20 24 11 13 1030.2 1030.1 0.0
22/01:00pm 16.8 12.4 8.8 59 4.1 SW 22 26 12 14 1030.5 1030.4 0.0
22/12:30pm 16.8 11.6 9.0 60 4.0 SW 26 32 14 17 1030.8 1030.7 0.0
22/12:00pm 17.1 12.3 8.8 58 4.2 SW 24 30 13 16 1031.2 1031.1 0.0
22/11:30am 17.0 12.3 7.9 55 4.6 SW 22 28 12 15 1031.8 1031.7 0.0
22/11:00am 16.6 12.4 8.3 58 4.2 SW 20 28 11 15 1031.8 1031.7 0.0
22/10:30am 16.3 12.1 8.3 59 4.0 SW 20 26 11 14 1032.0 1031.9 0.0
22/10:00am 16.1 12.4 8.1 59 4.0 WSW 17 20 9 11 1032.1 1032.0 0.0
22/09:30am 15.8 11.9 8.5 62 3.7 SW 19 24 10 13 1032.1 1032.0 0.0
22/09:00am 15.7 11.7 8.9 64 3.5 SW 20 28 11 15 1032.1 1032.0 0.0
22/08:30am 15.1 12.4 10.3 73 2.5 SSW 15 19 8 10 1031.8 1031.7 0.0
22/08:00am 15.0 12.2 10.0 72 2.6 SW 15 19 8 10 1031.6 1031.5 0.0
22/07:30am 15.1 12.3 9.9 71 2.7 WSW 15 20 8 11 1031.2 1031.1 0.0
22/07:00am 15.0 11.7 9.4 69 2.9 SW 17 22 9 12 1030.9 1030.8 0.0
22/06:30am 15.2 11.2 9.1 67 3.1 WSW 20 24 11 13 1030.7 1030.6 0.0
22/06:00am 15.0 11.9 8.9 67 3.1 WSW 15 20 8 11 1030.5 1030.4 0.0
22/05:30am 14.8 11.7 8.7 67 3.1 WSW 15 17 8 9 1030.3 1030.2 0.0
22/05:00am 14.9 11.5 9.3 69 2.9 WSW 17 20 9 11 1030.2 1030.1 0.0
22/04:30am 14.8 11.9 9.6 71 2.7 WSW 15 17 8 9 1030.0 1029.9 0.0
22/04:00am 14.9 11.5 9.1 68 3.0 SW 17 24 9 13 1029.9 1029.8 0.0
22/03:30am 15.2 10.7 8.7 65 3.3 SW 22 28 12 15 1029.9 1029.8 0.0
22/03:00am 14.8 11.7 8.7 67 3.1 WSW 15 19 8 10 1030.0 1029.9 0.0
22/02:30am 14.7 11.1 8.2 65 3.2 WSW 17 20 9 11 1030.2 1030.1 0.0
22/02:00am 14.8 11.4 9.0 68 3.0 WSW 17 22 9 12 1030.3 1030.2 0.0
22/01:30am 14.7 11.7 9.3 70 2.7 WSW 15 20 8 11 1030.2 1030.1 0.0
22/01:00am 14.3 12.2 9.7 74 2.4 WSW 11 17 6 9 1030.5 1030.4 0.0
22/12:30am 14.5 11.5 9.1 70 2.7 SW 15 20 8 11 1030.7 1030.6 0.0
22/12:00am 13.9 12.6 10.1 78 2.0 WSW 7 9 4 5 1030.8 1030.7 0.0
 
Date/Time
CST
Temp
°C
App
Temp
°C
Dew
Point
°C
Rel
Hum
%
Delta-T
°C
Wind Press
QNH
hPa
Press
MSL
hPa
Rain since
9am
mm
Dir  Spd
km/h
Gust
km/h
Spd
kts
Gust
kts
21/11:30pm 13.9 11.8 9.9 77 2.1 WSW 11 13 6 7 1031.1 1031.0 0.0
21/11:00pm 13.8 11.3 9.6 76 2.2 SW 13 17 7 9 1031.3 1031.2 0.0
21/10:30pm 13.8 11.9 10.4 80 1.8 SW 11 17 6 9 1031.4 1031.3 0.0
21/10:00pm 13.5 12.3 10.3 81 1.7 SW 7 11 4 6 1031.5 1031.4 0.0
21/09:30pm 13.7 12.0 9.9 78 1.9 SW 9 13 5 7 1031.5 1031.4 0.0
21/09:00pm 14.3 11.1 9.9 75 2.3 SSW 17 24 9 13 1031.3 1031.2 0.0
21/08:30pm 14.8 11.1 10.0 73 2.5 SW 20 26 11 14 1031.1 1031.0 0.0
21/08:00pm 14.9 11.9 10.5 75 2.3 SW 17 20 9 11 1031.1 1031.0 0.0
21/07:30pm 15.0 11.0 10.4 74 2.4 SW 22 26 12 14 1031.0 1030.9 0.0
21/07:00pm 15.1 11.4 10.3 73 2.5 SW 20 22 11 12 1030.8 1030.7 0.0
21/06:30pm 15.2 10.8 10.4 73 2.5 SW 24 32 13 17 1030.7 1030.6 0.0
21/06:00pm 15.7 10.9 8.7 63 3.5 WSW 24 30 13 16 1030.3 1030.2 0.0
21/05:30pm 15.5 11.7 9.8 69 2.9 WSW 20 26 11 14 1030.1 1030.0 0.0
21/05:00pm 15.8 10.6 9.0 64 3.5 WSW 26 35 14 19 1030.0 1029.9 0.0
21/04:30pm 16.0 11.0 8.2 60 3.9 WSW 24 30 13 16 1029.9 1029.8 0.0
21/04:00pm 16.1 11.0 9.1 63 3.6 WSW 26 32 14 17 1029.8 1029.7 0.0
21/03:30pm 16.4 10.1 7.6 56 4.4 SW 30 35 16 19 1029.8 1029.7 0.0
21/03:00pm 16.3 10.3 8.8 61 3.8 WSW 30 35 16 19 1029.8 1029.7 0.0
21/02:30pm 16.7 11.3 9.4 62 3.8 WSW 28 33 15 18 1029.9 1029.8 0.0
21/02:00pm 16.7 12.1 9.6 63 3.7 WSW 24 32 13 17 1029.8 1029.7 0.0
21/01:30pm 16.6 11.5 9.3 62 3.8 SW 26 32 14 17 1030.0 1029.9 0.0
21/01:00pm 16.8 10.3 8.8 59 4.1 WSW 33 41 18 22 1030.1 1030.0 0.0
21/12:30pm 17.0 10.7 8.9 59 4.2 W 32 37 17 20 1030.6 1030.5 0.0
21/12:00pm 16.6 11.8 8.8 60 4.0 W 24 28 13 15 1031.0 1030.9 0.0
21/11:30am 16.7 11.5 8.7 59 4.1 WSW 26 35 14 19 1031.2 1031.1 0.0
21/11:00am 16.8 11.2 8.8 59 4.1 WSW 28 33 15 18 1031.3 1031.2 0.0
21/10:30am 16.4 11.9 8.6 60 4.0 W 22 26 12 14 1031.4 1031.3 0.0
21/10:00am 16.3 11.5 8.8 61 3.8 WSW 24 32 13 17 1031.3 1031.2 0.0
21/09:30am 15.8 11.9 8.8 63 3.6 WSW 19 24 10 13 1031.5 1031.4 0.0
21/09:00am 15.5 10.6 8.3 62 3.6 SW 24 32 13 17 1031.3 1031.2 0.0
21/08:30am 15.2 12.2 9.1 67 3.1 SW 15 17 8 9 1031.1 1031.0 0.0
21/08:00am 15.0 10.5 8.7 66 3.2 SW 22 28 12 15 1030.6 1030.5 0.0
21/07:30am 14.6 10.4 8.3 66 3.1 WSW 20 26 11 14 1030.4 1030.3 0.0
21/07:00am 14.5 10.0 8.5 67 3.0 WSW 22 28 12 15 1030.0 1029.9 0.0
21/06:30am 14.3 10.8 8.9 70 2.7 SW 17 20 9 11 1029.9 1029.8 0.0
21/06:00am 14.1 10.2 8.5 69 2.8 SW 19 24 10 13 1029.7 1029.6 0.0
21/05:30am 14.1 10.6 8.9 71 2.6 SW 17 19 9 10 1029.4 1029.3 0.0
21/05:00am 14.4 11.0 9.0 70 2.7 WSW 17 20 9 11 1029.4 1029.3 0.0
21/04:30am 14.3 10.8 8.9 70 2.7 SW 17 20 9 11 1029.3 1029.2 0.0
21/04:00am 14.6 9.7 8.3 66 3.2 SW 24 30 13 16 1029.4 1029.3 0.0
21/03:30am 14.3 10.8 8.7 69 2.8 WSW 17 24 9 13 1029.4 1029.3 0.0
21/03:00am 14.3 9.9 8.9 70 2.7 SW 22 26 12 14 1029.6 1029.5 0.0
21/02:30am 14.3 10.2 8.7 69 2.8 SW 20 24 11 13 1029.6 1029.5 0.0
21/02:00am 14.2 10.2 9.2 72 2.6 SW 20 26 11 14 1029.7 1029.6 0.0
21/01:30am 14.0 10.7 9.4 74 2.3 SSW 17 20 9 11 1029.8 1029.7 0.0
21/01:00am 14.3 10.9 9.3 72 2.6 SW 17 19 9 10 1029.9 1029.8 0.0
21/12:30am 14.5 11.0 8.9 69 2.8 SW 17 22 9 12 1030.2 1030.1 0.0
21/12:00am 14.6 9.7 8.5 67 3.1 WSW 24 30 13 16 1030.0 1029.9 0.0
 
Date/Time
CST
Temp
°C
App
Temp
°C
Dew
Point
°C
Rel
Hum
%
Delta-T
°C
Wind Press
QNH
hPa
Press
MSL
hPa
Rain since
9am
mm
Dir  Spd
km/h
Gust
km/h
Spd
kts
Gust
kts
20/11:30pm 14.6 10.5 8.8 68 2.9 WSW 20 26 11 14 1030.1 1030.0 0.0
20/11:00pm 14.2 11.2 9.4 73 2.5 SW 15 20 8 11 1030.3 1030.2 0.0
20/10:30pm 14.4 12.2 9.2 71 2.6 SW 11 15 6 8 1030.2 1030.1 0.0
20/10:00pm 14.6 10.8 9.2 70 2.8 SW 19 24 10 13 1030.2 1030.1 0.0
20/09:30pm 14.5 11.1 9.1 70 2.7 SW 17 20 9 11 1030.0 1029.9 0.0
20/09:00pm 14.5 11.5 9.3 71 2.6 SW 15 19 8 10 1030.0 1029.9 0.0
20/08:30pm 14.5 11.0 8.7 68 2.9 SW 17 22 9 12 1029.9 1029.8 0.0
20/08:00pm 14.7 11.7 9.1 69 2.9 WSW 15 20 8 11 1029.9 1029.8 0.0
20/07:30pm 14.6 11.4 8.3 66 3.1 SW 15 19 8 10 1030.0 1029.9 0.0
20/07:00pm 14.7 10.2 8.6 67 3.1 SW 22 26 12 14 1029.8 1029.7 0.0
20/06:30pm 14.6 11.2 9.2 70 2.7 SW 17 22 9 12 1029.6 1029.5 0.0

Other Formats:

Comma delimited format used in spreadsheet applications
http://www.bom.gov.au/fwo/IDS60801/IDS60801.95659.axf

JavaScript Object Notation format (JSON) in row-major order
http://www.bom.gov.au/fwo/IDS60801/IDS60801.95659.json